createdAt,value
2018-07-25T00:02:22.999Z,101026.20
2018-07-25T00:04:52.071Z,101028.64
2018-07-25T00:07:20.930Z,101031.92
2018-07-25T00:09:50.291Z,101025.91
2018-07-25T00:12:19.285Z,101022.91
2018-07-25T00:14:48.278Z,101023.15
2018-07-25T00:17:17.233Z,101021.23
2018-07-25T00:19:46.119Z,101022.30
2018-07-25T00:22:15.058Z,101015.14
2018-07-25T00:24:44.046Z,101012.63
2018-07-25T00:27:12.703Z,101014.26
2018-07-25T00:29:41.393Z,101011.78
2018-07-25T00:32:10.315Z,101011.25
2018-07-25T00:34:39.365Z,101009.89
2018-07-25T00:37:08.554Z,101012.31
2018-07-25T00:39:39.024Z,101012.86
2018-07-25T00:42:07.848Z,101016.13
2018-07-25T00:44:36.512Z,101007.94
2018-07-25T00:47:05.465Z,101006.05
2018-07-25T00:49:34.418Z,101002.48
2018-07-25T00:52:03.064Z,101000.30
2018-07-25T00:54:31.977Z,101010.09
2018-07-25T00:57:00.667Z,101008.98
2018-07-25T00:59:29.344Z,101007.06
2018-07-25T01:01:58.404Z,101011.70
2018-07-25T01:04:27.040Z,101003.48
2018-07-25T01:06:55.737Z,101007.33
2018-07-25T01:09:24.956Z,101008.12
2018-07-25T01:11:54.529Z,101009.18
2018-07-25T01:14:23.533Z,101005.61
2018-07-25T01:16:53.279Z,101004.20
2018-07-25T01:19:22.035Z,101003.64
2018-07-25T01:21:50.904Z,101004.94
2018-07-25T01:24:19.585Z,100998.67
2018-07-25T01:26:48.341Z,101003.05
2018-07-25T01:29:17.438Z,101006.31
2018-07-25T01:31:46.586Z,101006.59
2018-07-25T01:34:15.686Z,101004.95
2018-07-25T01:36:45.165Z,101005.48
2018-07-25T01:39:15.035Z,101011.16
2018-07-25T01:41:44.531Z,101008.98
2018-07-25T01:44:14.101Z,101008.70
2018-07-25T01:46:44.012Z,101010.63
2018-07-25T01:49:13.048Z,101009.27
2018-07-25T01:51:44.036Z,101019.09
2018-07-25T01:54:13.794Z,101020.71
2018-07-25T01:56:42.777Z,101027.53
2018-07-25T01:59:11.666Z,101024.73
2018-07-25T02:01:41.345Z,101028.27
2018-07-25T02:04:10.030Z,101027.98
2018-07-25T02:06:39.147Z,101026.08
2018-07-25T02:09:11.727Z,101030.96
2018-07-25T02:11:40.697Z,101033.40
2018-07-25T02:14:09.934Z,101036.66
2018-07-25T02:16:38.578Z,101043.48
2018-07-25T02:19:07.311Z,101044.30
2018-07-25T02:21:36.611Z,101047.57
2018-07-25T02:24:05.913Z,101043.20
2018-07-25T02:26:34.907Z,101041.27
2018-07-25T02:29:03.724Z,101046.43
2018-07-25T02:31:32.408Z,101044.78
2018-07-25T02:34:06.598Z,101048.33
2018-07-25T02:36:35.384Z,101048.58
2018-07-25T02:39:05.085Z,101047.75
2018-07-25T02:41:33.743Z,101043.92
2018-07-25T02:44:02.776Z,101043.89
2018-07-25T02:46:32.082Z,101043.56
2018-07-25T02:49:00.978Z,101044.10
2018-07-25T02:51:30.379Z,101039.95
2018-07-25T02:53:59.001Z,101044.86
2018-07-25T02:56:27.664Z,101044.28
2018-07-25T02:58:56.714Z,101050.23
2018-07-25T03:01:25.655Z,101049.12
2018-07-25T03:03:54.606Z,101044.78
2018-07-25T03:06:23.531Z,101046.89
2018-07-25T03:08:52.574Z,101047.97
2018-07-25T03:11:21.520Z,101053.95
2018-07-25T03:13:50.519Z,101053.13
2018-07-25T03:16:19.159Z,101056.14
2018-07-25T03:18:47.814Z,101059.19
2018-07-25T03:21:16.628Z,101058.12
2018-07-25T03:23:45.739Z,101067.36
2018-07-25T03:26:14.768Z,101065.18
2018-07-25T03:28:43.481Z,101065.75
2018-07-25T03:31:12.133Z,101071.20
2018-07-25T03:33:41.140Z,101081.03
2018-07-25T03:36:10.024Z,101068.77
2018-07-25T03:38:38.807Z,101070.16
2018-07-25T03:41:07.800Z,101073.72
2018-07-25T03:43:36.465Z,101076.77
2018-07-25T03:46:05.140Z,101078.42
2018-07-25T03:48:34.070Z,101078.70
2018-07-25T03:51:03.703Z,101084.73
2018-07-25T03:53:32.345Z,101087.45
2018-07-25T03:56:01.614Z,101085.59
2018-07-25T03:58:31.032Z,101088.33
2018-07-25T04:00:59.646Z,101092.19
2018-07-25T04:03:28.364Z,101090.01
2018-07-25T04:05:57.033Z,101097.39
2018-07-25T04:08:25.724Z,101093.59
2018-07-25T04:10:54.691Z,101086.99
2018-07-25T04:13:23.706Z,101088.61
2018-07-25T04:15:52.364Z,101095.67
2018-07-25T04:18:21.435Z,101094.34
2018-07-25T04:20:50.389Z,101097.64
2018-07-25T04:23:19.351Z,101093.56
2018-07-25T04:25:47.973Z,101101.23
2018-07-25T04:28:16.836Z,101104.00
2018-07-25T04:30:45.752Z,101105.97
2018-07-25T04:33:14.719Z,101111.70
2018-07-25T04:35:44.149Z,101109.33
2018-07-25T04:38:13.473Z,101110.98
2018-07-25T04:40:42.115Z,101113.17
2018-07-25T04:43:10.723Z,101106.61
2018-07-25T04:45:39.551Z,101109.08
2018-07-25T04:48:08.818Z,101111.52
2018-07-25T04:50:37.566Z,101115.03
2018-07-25T04:53:06.372Z,101113.61
2018-07-25T04:55:35.382Z,101116.33
2018-07-25T04:58:04.687Z,101121.21
2018-07-25T05:00:33.449Z,101118.48
2018-07-25T05:03:03.101Z,101118.48
2018-07-25T05:05:32.462Z,101119.59
2018-07-25T05:08:01.702Z,101119.06
2018-07-25T05:10:30.397Z,101118.23
2018-07-25T05:12:59.083Z,101122.68
2018-07-25T05:15:28.187Z,101116.15
2018-07-25T05:17:56.861Z,101116.18
2018-07-25T05:20:25.829Z,101120.59
2018-07-25T05:22:54.479Z,101115.67
2018-07-25T05:25:23.170Z,101119.52
2018-07-25T05:27:51.792Z,101117.86
2018-07-25T05:30:20.469Z,101118.11
2018-07-25T05:32:49.839Z,101117.04
2018-07-25T05:35:18.893Z,101117.61
2018-07-25T05:37:47.538Z,101125.28
2018-07-25T05:40:16.269Z,101126.11
2018-07-25T05:42:45.465Z,101127.25
2018-07-25T05:45:14.658Z,101122.08
2018-07-25T05:47:43.596Z,101119.13
2018-07-25T05:50:12.274Z,101121.59
2018-07-25T05:52:41.039Z,101122.45
2018-07-25T05:55:09.917Z,101126.31
2018-07-25T05:57:38.582Z,101126.91
2018-07-25T06:00:07.339Z,101129.66
2018-07-25T06:02:36.371Z,101137.63
2018-07-25T06:05:05.151Z,101137.65
2018-07-25T06:07:34.144Z,101140.97
2018-07-25T06:10:02.865Z,101144.58
2018-07-25T06:12:31.854Z,101138.86
2018-07-25T06:15:00.554Z,101139.16
2018-07-25T06:17:29.242Z,101140.79
2018-07-25T06:19:58.088Z,101148.72
2018-07-25T06:22:26.776Z,101146.27
2018-07-25T06:24:55.923Z,101147.94
2018-07-25T06:27:24.576Z,101147.67
2018-07-25T06:29:53.809Z,101147.44
2018-07-25T06:32:22.463Z,101154.30
2018-07-25T06:34:51.185Z,101152.43
2018-07-25T06:37:20.481Z,101153.02
2018-07-25T06:39:49.213Z,101148.95
2018-07-25T06:42:17.921Z,101150.94
2018-07-25T06:44:46.814Z,101152.66
2018-07-25T06:47:15.549Z,101154.60
2018-07-25T06:49:44.287Z,101156.84
2018-07-25T06:52:16.820Z,101159.03
2018-07-25T06:54:45.959Z,101155.18
2018-07-25T06:57:16.032Z,101157.33
2018-07-25T06:59:45.872Z,101160.52
2018-07-25T07:02:14.565Z,101165.93
2018-07-25T07:04:43.340Z,101159.00
2018-07-25T07:07:12.259Z,101170.20
2018-07-25T07:09:41.226Z,101169.55
2018-07-25T07:12:10.192Z,101171.08
2018-07-25T07:14:39.086Z,101178.27
2018-07-25T07:17:08.106Z,101176.43
2018-07-25T07:19:36.792Z,101170.94
2018-07-25T07:22:05.956Z,101172.69
2018-07-25T07:24:34.758Z,101168.42
2018-07-25T07:27:03.539Z,101167.41
2018-07-25T07:29:32.247Z,101169.22
2018-07-25T07:32:01.113Z,101164.39
2018-07-25T07:34:30.674Z,101169.78
2018-07-25T07:36:59.421Z,101168.30
2018-07-25T07:39:28.167Z,101168.69
2018-07-25T07:41:56.917Z,101169.98
2018-07-25T07:44:25.930Z,101154.94
2018-07-25T07:46:54.717Z,101168.87
2018-07-25T07:49:23.659Z,101172.45
2018-07-25T07:51:52.303Z,101181.70
2018-07-25T07:54:21.336Z,101175.30
2018-07-25T07:56:50.023Z,101182.93
2018-07-25T07:59:18.711Z,101178.28
2018-07-25T08:01:47.428Z,101171.58
2018-07-25T08:04:16.140Z,101167.87
2018-07-25T08:06:44.873Z,101172.91
2018-07-25T08:09:13.953Z,101179.14
2018-07-25T08:11:42.949Z,101180.39
2018-07-25T08:14:11.674Z,101165.98
2018-07-25T08:16:40.978Z,101174.59
2018-07-25T08:19:13.046Z,101165.63
2018-07-25T08:21:42.006Z,101171.99
2018-07-25T08:24:11.074Z,101174.34
2018-07-25T08:26:40.398Z,101172.91
2018-07-25T08:29:09.082Z,101164.23
2018-07-25T08:31:37.744Z,101160.45
2018-07-25T08:34:06.694Z,101163.13
2018-07-25T08:36:35.417Z,101166.18
2018-07-25T08:39:06.842Z,101161.31
2018-07-25T08:41:35.728Z,101168.92
2018-07-25T08:44:05.612Z,101168.02
2018-07-25T08:46:34.347Z,101169.45
2018-07-25T08:49:03.679Z,101162.39
2018-07-25T08:51:32.677Z,101163.45
2018-07-25T08:54:01.376Z,101164.33
2018-07-25T08:56:30.332Z,101164.66
2018-07-25T08:58:59.758Z,101164.84
2018-07-25T09:01:28.694Z,101157.78
2018-07-25T09:03:57.853Z,101166.69
2018-07-25T09:06:26.794Z,101168.33
2018-07-25T09:08:55.661Z,101162.56
2018-07-25T09:11:29.249Z,101162.06
2018-07-25T09:13:58.890Z,101163.38
2018-07-25T09:16:28.086Z,101166.70
2018-07-25T09:18:56.801Z,101159.33
2018-07-25T09:21:25.831Z,101162.53
2018-07-25T09:23:54.545Z,101165.45
2018-07-25T09:26:23.598Z,101162.70
2018-07-25T09:28:52.231Z,101162.08
2018-07-25T09:31:20.887Z,101158.05
2018-07-25T09:33:49.668Z,101158.86
2018-07-25T09:36:18.910Z,101160.33
2018-07-25T09:38:47.602Z,101161.67
2018-07-25T09:41:16.343Z,101168.69
2018-07-25T09:43:45.131Z,101163.44
2018-07-25T09:46:14.002Z,101158.34
2018-07-25T09:48:42.749Z,101160.04
2018-07-25T09:51:11.808Z,101157.80
2018-07-25T09:53:41.066Z,101161.11
2018-07-25T09:56:09.726Z,101159.63
2018-07-25T09:58:38.494Z,101157.36
2018-07-25T10:01:07.705Z,101159.89
2018-07-25T10:03:36.675Z,101157.98
2018-07-25T10:06:05.491Z,101152.45
2018-07-25T10:08:34.817Z,101142.37
2018-07-25T10:11:03.784Z,101149.36
2018-07-25T10:13:32.476Z,101142.77
2018-07-25T10:16:01.191Z,101147.59
2018-07-25T10:18:30.221Z,101146.31
2018-07-25T10:20:58.941Z,101155.20
2018-07-25T10:23:27.577Z,101148.02
2018-07-25T10:25:56.621Z,101143.30
2018-07-25T10:28:25.624Z,101142.66
2018-07-25T10:30:54.575Z,101133.58
2018-07-25T10:33:23.237Z,101133.09
2018-07-25T10:35:52.043Z,101134.47
2018-07-25T10:38:21.689Z,101130.86
2018-07-25T10:40:51.449Z,101135.77
2018-07-25T10:43:20.222Z,101135.53
2018-07-25T10:45:49.283Z,101132.24
2018-07-25T10:48:18.189Z,101128.83
2018-07-25T10:50:48.985Z,101127.34
2018-07-25T10:53:17.700Z,101126.88
2018-07-25T10:55:46.571Z,101127.09
2018-07-25T10:58:15.651Z,101130.15
2018-07-25T11:00:44.390Z,101123.22
2018-07-25T11:03:13.585Z,101122.69
2018-07-25T11:05:42.727Z,101121.00
2018-07-25T11:08:12.657Z,101120.09
2018-07-25T11:10:41.366Z,101122.23
2018-07-25T11:13:10.503Z,101126.38
2018-07-25T11:15:39.326Z,101117.98
2018-07-25T11:18:08.241Z,101115.22
2018-07-25T11:20:37.512Z,101119.45
2018-07-25T11:23:06.808Z,101117.80
2018-07-25T11:25:36.758Z,101118.80
2018-07-25T11:28:05.651Z,101114.51
2018-07-25T11:30:35.242Z,101120.58
2018-07-25T11:33:04.227Z,101115.28
2018-07-25T11:35:33.225Z,101108.41
2018-07-25T11:38:02.278Z,101111.27
2018-07-25T11:40:30.956Z,101115.59
2018-07-25T11:42:59.678Z,101104.53
2018-07-25T11:45:28.353Z,101116.03
2018-07-25T11:47:57.355Z,101106.27
2018-07-25T11:50:26.127Z,101101.10
2018-07-25T11:52:54.764Z,101109.44
2018-07-25T11:55:23.827Z,101110.78
2018-07-25T11:57:52.477Z,101106.04
2018-07-25T12:00:21.694Z,101104.37
2018-07-25T12:02:51.441Z,101095.02
2018-07-25T12:05:20.397Z,101095.06
2018-07-25T12:07:49.631Z,101097.47
2018-07-25T12:10:18.511Z,101089.12
2018-07-25T12:12:47.414Z,101091.25
2018-07-25T12:15:16.088Z,101094.30
2018-07-25T12:17:44.933Z,101088.03
2018-07-25T12:20:13.693Z,101089.86
2018-07-25T12:22:42.506Z,101085.25
2018-07-25T12:25:11.241Z,101080.52
2018-07-25T12:27:39.977Z,101078.43
2018-07-25T12:30:09.364Z,101076.05
2018-07-25T12:32:38.484Z,101068.83
2018-07-25T12:35:07.240Z,101065.48
2018-07-25T12:37:36.210Z,101068.53
2018-07-25T12:40:05.092Z,101066.36
2018-07-25T12:42:33.743Z,101047.09
2018-07-25T12:45:02.700Z,101052.20
2018-07-25T12:47:31.719Z,101055.30
2018-07-25T12:50:00.360Z,101051.29
2018-07-25T12:52:29.172Z,101056.94
2018-07-25T12:54:57.810Z,101046.00
2018-07-25T12:57:26.464Z,101041.33
2018-07-25T12:59:55.429Z,101045.78
2018-07-25T13:02:24.224Z,101034.94
2018-07-25T13:04:52.979Z,101048.23
2018-07-25T13:07:22.284Z,101044.70
2018-07-25T13:09:50.958Z,101037.67
2018-07-25T13:12:20.149Z,101034.63
2018-07-25T13:14:49.292Z,101036.25
2018-07-25T13:17:17.977Z,101029.27
2018-07-25T13:19:46.650Z,101028.10
2018-07-25T13:22:15.911Z,101026.78
2018-07-25T13:24:45.056Z,101030.86
2018-07-25T13:27:13.777Z,101026.47
2018-07-25T13:29:42.772Z,101025.50
2018-07-25T13:32:11.467Z,101028.27
2018-07-25T13:34:40.448Z,101027.83
2018-07-25T13:37:09.413Z,101024.21
2018-07-25T13:39:38.512Z,101017.06
2018-07-25T13:42:07.476Z,101011.61
2018-07-25T13:44:36.424Z,101011.67
2018-07-25T13:47:05.346Z,101000.09
2018-07-25T13:49:34.365Z,101016.98
2018-07-25T13:52:03.730Z,101013.61
2018-07-25T13:54:32.313Z,101005.95
2018-07-25T13:57:00.974Z,101014.86
2018-07-25T13:59:29.656Z,101012.73
2018-07-25T14:01:58.457Z,101004.92
2018-07-25T14:04:27.643Z,101007.02
2018-07-25T14:06:56.393Z,100995.52
2018-07-25T14:09:25.319Z,100995.13
2018-07-25T14:11:54.508Z,100992.63
2018-07-25T14:14:23.270Z,100988.98
2018-07-25T14:16:52.497Z,100984.65
2018-07-25T14:19:21.821Z,100986.32
2018-07-25T14:21:50.521Z,100990.53
2018-07-25T14:24:19.548Z,100987.33
2018-07-25T14:26:48.555Z,100985.78
2018-07-25T14:29:17.460Z,100978.63
2018-07-25T14:31:46.561Z,100981.20
2018-07-25T14:34:15.558Z,100973.78
2018-07-25T14:36:44.273Z,100971.88
2018-07-25T14:39:13.380Z,100976.46
2018-07-25T14:41:42.077Z,100967.52
2018-07-25T14:44:11.252Z,100970.62
2018-07-25T14:46:40.298Z,100969.71
2018-07-25T14:49:08.971Z,100972.27
2018-07-25T14:51:37.772Z,100965.83
2018-07-25T14:54:06.480Z,100960.56
2018-07-25T14:56:35.164Z,100956.52
2018-07-25T14:59:04.057Z,100962.19
2018-07-25T15:01:32.724Z,100964.33
2018-07-25T15:04:01.854Z,100963.67
2018-07-25T15:06:30.559Z,100964.37
2018-07-25T15:08:59.460Z,100967.09
2018-07-25T15:11:28.121Z,100971.33
2018-07-25T15:13:57.003Z,100968.72
2018-07-25T15:16:25.648Z,100959.14
2018-07-25T15:18:54.346Z,100953.95
2018-07-25T15:21:23.313Z,100950.45
2018-07-25T15:24:04.171Z,100964.94
2018-07-25T15:26:33.070Z,100955.13
2018-07-25T15:29:03.198Z,100958.84
2018-07-25T15:31:31.840Z,100964.11
2018-07-25T15:34:00.540Z,100947.08
2018-07-25T15:36:41.644Z,100953.31
2018-07-25T15:39:28.468Z,100950.55
2018-07-25T15:41:58.582Z,100947.20
2018-07-25T15:44:28.467Z,100949.16
2018-07-25T15:46:57.249Z,100948.27
2018-07-25T15:49:27.051Z,100947.13
2018-07-25T15:51:55.795Z,100942.81
2018-07-25T15:54:24.854Z,100942.30
2018-07-25T15:56:53.790Z,100943.09
2018-07-25T15:59:22.844Z,100940.35
2018-07-25T16:01:51.650Z,100947.89
2018-07-25T16:04:20.367Z,100946.33
2018-07-25T16:06:49.157Z,100938.36
2018-07-25T16:09:18.180Z,100943.58
2018-07-25T16:11:47.790Z,100944.68
2018-07-25T16:14:16.913Z,100934.66
2018-07-25T16:16:45.920Z,100940.28
2018-07-25T16:19:15.112Z,100939.28
2018-07-25T16:21:44.164Z,100933.34
2018-07-25T16:24:13.332Z,100942.45
2018-07-25T16:26:41.975Z,100933.59
2018-07-25T16:29:10.761Z,100942.45
2018-07-25T16:31:39.703Z,100933.03
2018-07-25T16:34:08.387Z,100942.59
2018-07-25T16:36:37.129Z,100942.81
2018-07-25T16:39:09.165Z,100948.45
2018-07-25T16:41:37.899Z,100949.37
2018-07-25T16:44:06.613Z,100945.95
2018-07-25T16:46:35.398Z,100947.70
2018-07-25T16:49:04.120Z,100944.21
2018-07-25T16:51:32.838Z,100942.69
2018-07-25T16:54:01.947Z,100941.20
2018-07-25T16:56:30.711Z,100935.32
2018-07-25T16:58:59.382Z,100941.28
2018-07-25T17:01:28.183Z,100938.27
2018-07-25T17:03:57.075Z,100935.14
2018-07-25T17:06:26.081Z,100932.52
2018-07-25T17:08:54.993Z,100935.05
2018-07-25T17:11:23.722Z,100941.83
2018-07-25T17:13:52.407Z,100942.22
2018-07-25T17:16:21.181Z,100945.08
2018-07-25T17:18:50.024Z,100950.21
2018-07-25T17:21:18.861Z,100946.97
2018-07-25T17:23:47.764Z,100950.95
2018-07-25T17:26:16.705Z,100948.84
2018-07-25T17:28:45.636Z,100956.59
2018-07-25T17:31:14.399Z,100950.91
2018-07-25T17:33:43.329Z,100953.71
2018-07-25T17:36:12.300Z,100960.04
2018-07-25T17:38:41.445Z,100955.22
2018-07-25T17:41:10.234Z,100956.42
2018-07-25T17:43:38.924Z,100962.03
2018-07-25T17:46:07.797Z,100961.59
2018-07-25T17:48:36.773Z,100959.48
2018-07-25T17:51:05.566Z,100954.30
2018-07-25T17:53:34.578Z,100964.52
2018-07-25T17:56:03.403Z,100960.47
2018-07-25T17:58:32.426Z,100963.30
2018-07-25T18:01:01.517Z,100968.08
2018-07-25T18:03:30.663Z,100965.39
2018-07-25T18:06:00.479Z,100959.11
2018-07-25T18:08:29.609Z,100963.05
2018-07-25T18:10:58.622Z,100963.66
2018-07-25T18:13:32.794Z,100968.09
2018-07-25T18:16:01.565Z,100965.97
2018-07-25T18:18:30.619Z,100972.03
2018-07-25T18:21:00.150Z,100974.08
2018-07-25T18:23:28.870Z,100978.20
2018-07-25T18:25:57.730Z,100980.45
2018-07-25T18:28:26.904Z,100980.56
2018-07-25T18:30:55.736Z,100984.80
2018-07-25T18:33:27.187Z,100983.20
2018-07-25T18:35:57.058Z,100989.63
2018-07-25T18:38:26.182Z,100997.37
2018-07-25T18:40:54.855Z,100996.32
2018-07-25T18:43:23.585Z,100996.42
2018-07-25T18:45:52.274Z,100997.05
2018-07-25T18:48:21.042Z,101002.62
2018-07-25T18:50:50.005Z,101000.49
2018-07-25T18:53:20.893Z,101006.33
2018-07-25T18:55:51.776Z,101009.70
2018-07-25T18:58:20.515Z,101005.89
2018-07-25T19:00:50.152Z,101012.02
2018-07-25T19:03:19.016Z,101017.26
2018-07-25T19:05:48.713Z,101018.66
2018-07-25T19:08:18.573Z,101029.17
2018-07-25T19:10:50.220Z,101037.75
2018-07-25T19:13:24.185Z,101036.44
2018-07-25T19:15:52.963Z,101044.45
2018-07-25T19:18:21.962Z,101041.44
2018-07-25T19:20:51.070Z,101048.38
2018-07-25T19:23:20.105Z,101053.91
2018-07-25T19:25:49.352Z,101054.19
2018-07-25T19:28:18.313Z,101062.91
2018-07-25T19:30:47.306Z,101061.89
2018-07-25T19:33:15.983Z,101063.03
2018-07-25T19:35:44.997Z,101066.09
2018-07-25T19:38:14.022Z,101067.23
2018-07-25T19:40:43.302Z,101069.45
2018-07-25T19:43:11.953Z,101075.02
2018-07-25T19:45:40.976Z,101078.05
2018-07-25T19:48:09.664Z,101078.95
2018-07-25T19:50:38.583Z,101085.56
2018-07-25T19:53:07.430Z,101086.14
2018-07-25T19:55:36.203Z,101086.22
2018-07-25T19:58:05.376Z,101084.34
2018-07-25T20:00:34.728Z,101086.84
2018-07-25T20:03:03.843Z,101084.17
2018-07-25T20:05:33.241Z,101088.87
2018-07-25T20:08:02.530Z,101087.25
2018-07-25T20:10:31.553Z,101089.78
2018-07-25T20:13:00.310Z,101093.38
2018-07-25T20:15:34.828Z,101097.48
2018-07-25T20:18:03.978Z,101099.69
2018-07-25T20:20:32.793Z,101098.86
2018-07-25T20:23:01.721Z,101102.72
2018-07-25T20:25:30.643Z,101101.11
2018-07-25T20:28:00.750Z,101097.28
2018-07-25T20:30:30.962Z,101101.42
2018-07-25T20:33:00.008Z,101097.03
2018-07-25T20:35:29.258Z,101103.62
2018-07-25T20:37:58.260Z,101096.26
2018-07-25T20:40:27.139Z,101099.02
2018-07-25T20:42:55.884Z,101094.37
2018-07-25T20:45:24.666Z,101096.63
2018-07-25T20:47:53.630Z,101097.20
2018-07-25T20:50:22.571Z,101089.30
2018-07-25T20:52:52.833Z,101101.41
2018-07-25T20:55:22.767Z,101102.32
2018-07-25T20:57:52.582Z,101106.73
2018-07-25T21:00:27.175Z,101107.34
2018-07-25T21:02:57.115Z,101111.19
2018-07-25T21:05:25.900Z,101116.41
2018-07-25T21:07:54.645Z,101109.84
2018-07-25T21:10:23.766Z,101118.95
2018-07-25T21:12:55.083Z,101115.93
2018-07-25T21:15:24.341Z,101118.42
2018-07-25T21:17:53.659Z,101122.58
2018-07-25T21:20:22.352Z,101126.72
2018-07-25T21:22:51.061Z,101130.84
2018-07-25T21:25:20.935Z,101130.34
2018-07-25T21:27:49.641Z,101131.98
2018-07-25T21:30:18.953Z,101142.70
2018-07-25T21:32:48.131Z,101145.22
2018-07-25T21:35:16.858Z,101142.77
2018-07-25T21:37:46.429Z,101148.30
2018-07-25T21:40:15.928Z,101142.27
2018-07-25T21:42:44.760Z,101145.57
2018-07-25T21:45:13.991Z,101143.14
2018-07-25T21:47:42.707Z,101156.59
2018-07-25T21:50:11.798Z,101153.59
2018-07-25T21:52:41.460Z,101152.50
2018-07-25T21:55:10.184Z,101153.88
2018-07-25T21:57:45.337Z,101158.31
2018-07-25T22:00:17.994Z,101153.66
2018-07-25T22:02:48.035Z,101159.45
2018-07-25T22:05:19.867Z,101164.12
2018-07-25T22:07:49.765Z,101166.63
2018-07-25T22:10:18.838Z,101163.34
2018-07-25T22:12:48.320Z,101165.03
2018-07-25T22:15:18.199Z,101165.85
2018-07-25T22:17:46.881Z,101174.91
2018-07-25T22:20:17.031Z,101171.06
2018-07-25T22:22:45.824Z,101172.75
2018-07-25T22:25:14.849Z,101175.25
2018-07-25T22:27:44.698Z,101176.08
2018-07-25T22:30:13.950Z,101178.84
2018-07-25T22:32:42.928Z,101182.17
2018-07-25T22:35:11.597Z,101177.78
2018-07-25T22:37:40.326Z,101176.96
2018-07-25T22:40:08.950Z,101178.30
2018-07-25T22:42:37.594Z,101180.77
2018-07-25T22:45:06.348Z,101174.49
2018-07-25T22:47:35.002Z,101175.31
2018-07-25T22:50:04.350Z,101181.62
2018-07-25T22:52:33.548Z,101176.17
2018-07-25T22:55:02.327Z,101184.38
2018-07-25T22:57:31.046Z,101176.16
2018-07-25T23:00:00.100Z,101177.25
2018-07-25T23:02:28.842Z,101181.67
2018-07-25T23:04:57.480Z,101178.38
2018-07-25T23:07:26.986Z,101181.66
2018-07-25T23:09:55.951Z,101190.46
2018-07-25T23:12:24.902Z,101183.88
2018-07-25T23:14:53.886Z,101185.52
2018-07-25T23:17:22.525Z,101184.17
2018-07-25T23:19:51.524Z,101184.45
2018-07-25T23:22:20.127Z,101183.63
2018-07-25T23:24:49.116Z,101186.92
2018-07-25T23:27:17.738Z,101186.98
2018-07-25T23:29:46.353Z,101188.86
2018-07-25T23:32:15.296Z,101186.11
2018-07-25T23:34:44.313Z,101187.77
2018-07-25T23:37:13.004Z,101185.30
2018-07-25T23:39:41.696Z,101193.27
2018-07-25T23:42:10.398Z,101185.85
2018-07-25T23:44:39.110Z,101180.64
2018-07-25T23:47:08.000Z,101185.30
2018-07-25T23:49:37.459Z,101185.03
2018-07-25T23:52:06.205Z,101182.03
2018-07-25T23:54:34.850Z,101179.30
2018-07-25T23:57:03.467Z,101183.13
2018-07-25T23:59:32.121Z,101182.55
